sensor_id;sensor_type;location;lat;lon;timestamp;P1;durP1;ratioP1;P2;durP2;ratioP2
21480;SDS011;10902;48.158;8.634;2022-11-18T00:01:25;3.15;;;1.00;;
21480;SDS011;10902;48.158;8.634;2022-11-18T00:03:51;3.88;;;1.05;;
21480;SDS011;10902;48.158;8.634;2022-11-18T00:06:21;4.80;;;1.63;;
21480;SDS011;10902;48.158;8.634;2022-11-18T00:08:49;4.03;;;2.00;;
21480;SDS011;10902;48.158;8.634;2022-11-18T00:11:17;4.10;;;1.60;;
21480;SDS011;10902;48.158;8.634;2022-11-18T00:14:04;3.80;;;1.83;;
21480;SDS011;10902;48.158;8.634;2022-11-18T00:16:42;4.57;;;2.08;;
21480;SDS011;10902;48.158;8.634;2022-11-18T00:19:08;5.18;;;1.70;;
21480;SDS011;10902;48.158;8.634;2022-11-18T00:21:34;4.40;;;2.15;;
21480;SDS011;10902;48.158;8.634;2022-11-18T00:23:59;4.07;;;2.03;;
21480;SDS011;10902;48.158;8.634;2022-11-18T00:26:25;4.72;;;2.08;;
21480;SDS011;10902;48.158;8.634;2022-11-18T00:28:50;4.80;;;2.60;;
21480;SDS011;10902;48.158;8.634;2022-11-18T00:31:16;4.32;;;2.28;;
21480;SDS011;10902;48.158;8.634;2022-11-18T00:33:42;4.78;;;1.98;;
21480;SDS011;10902;48.158;8.634;2022-11-18T00:36:08;4.53;;;1.75;;
21480;SDS011;10902;48.158;8.634;2022-11-18T00:38:35;4.90;;;2.28;;
21480;SDS011;10902;48.158;8.634;2022-11-18T00:41:03;4.75;;;2.35;;
21480;SDS011;10902;48.158;8.634;2022-11-18T00:43:30;4.68;;;2.08;;
21480;SDS011;10902;48.158;8.634;2022-11-18T00:45:56;5.15;;;2.25;;
21480;SDS011;10902;48.158;8.634;2022-11-18T00:48:22;5.38;;;2.45;;
21480;SDS011;10902;48.158;8.634;2022-11-18T00:50:49;5.05;;;2.28;;
21480;SDS011;10902;48.158;8.634;2022-11-18T00:53:16;5.32;;;2.55;;
21480;SDS011;10902;48.158;8.634;2022-11-18T00:55:43;3.90;;;1.95;;
21480;SDS011;10902;48.158;8.634;2022-11-18T00:58:09;4.22;;;1.83;;
21480;SDS011;10902;48.158;8.634;2022-11-18T01:00:38;4.47;;;1.95;;
21480;SDS011;10902;48.158;8.634;2022-11-18T01:03:08;3.78;;;1.77;;
21480;SDS011;10902;48.158;8.634;2022-11-18T01:05:34;5.10;;;2.30;;
21480;SDS011;10902;48.158;8.634;2022-11-18T01:08:00;7.05;;;2.17;;
21480;SDS011;10902;48.158;8.634;2022-11-18T01:10:26;4.28;;;2.05;;
21480;SDS011;10902;48.158;8.634;2022-11-18T01:12:51;4.22;;;2.03;;
21480;SDS011;10902;48.158;8.634;2022-11-18T01:15:40;3.58;;;1.88;;
21480;SDS011;10902;48.158;8.634;2022-11-18T01:18:07;3.58;;;1.50;;
21480;SDS011;10902;48.158;8.634;2022-11-18T01:20:33;2.00;;;0.80;;
21480;SDS011;10902;48.158;8.634;2022-11-18T01:22:59;2.63;;;0.75;;
21480;SDS011;10902;48.158;8.634;2022-11-18T01:25:25;0.93;;;0.30;;
21480;SDS011;10902;48.158;8.634;2022-11-18T01:27:50;1.50;;;0.50;;
21480;SDS011;10902;48.158;8.634;2022-11-18T01:30:16;1.48;;;0.40;;
21480;SDS011;10902;48.158;8.634;2022-11-18T01:32:42;0.68;;;0.30;;
21480;SDS011;10902;48.158;8.634;2022-11-18T01:35:09;1.92;;;0.40;;
21480;SDS011;10902;48.158;8.634;2022-11-18T01:37:35;1.65;;;0.50;;
21480;SDS011;10902;48.158;8.634;2022-11-18T01:40:02;2.50;;;0.85;;
21480;SDS011;10902;48.158;8.634;2022-11-18T01:42:32;2.15;;;0.70;;
21480;SDS011;10902;48.158;8.634;2022-11-18T01:47:34;1.35;;;0.40;;
21480;SDS011;10902;48.158;8.634;2022-11-18T01:50:06;2.60;;;0.40;;
21480;SDS011;10902;48.158;8.634;2022-11-18T01:52:33;0.73;;;0.40;;
21480;SDS011;10902;48.158;8.634;2022-11-18T01:55:02;0.80;;;0.30;;
21480;SDS011;10902;48.158;8.634;2022-11-18T01:57:31;1.85;;;0.40;;
21480;SDS011;10902;48.158;8.634;2022-11-18T01:59:59;0.88;;;0.30;;
21480;SDS011;10902;48.158;8.634;2022-11-18T02:02:29;2.58;;;0.30;;
21480;SDS011;10902;48.158;8.634;2022-11-18T02:05:01;1.45;;;0.43;;
21480;SDS011;10902;48.158;8.634;2022-11-18T02:07:28;1.08;;;0.40;;
21480;SDS011;10902;48.158;8.634;2022-11-18T02:09:55;1.13;;;0.30;;
21480;SDS011;10902;48.158;8.634;2022-11-18T02:12:23;2.58;;;0.40;;
21480;SDS011;10902;48.158;8.634;2022-11-18T02:14:49;1.55;;;0.40;;
21480;SDS011;10902;48.158;8.634;2022-11-18T02:30:58;1.02;;;0.30;;
21480;SDS011;10902;48.158;8.634;2022-11-18T02:33:48;0.63;;;0.25;;
21480;SDS011;10902;48.158;8.634;2022-11-18T02:36:20;1.40;;;0.30;;
21480;SDS011;10902;48.158;8.634;2022-11-18T02:38:56;1.17;;;0.40;;
21480;SDS011;10902;48.158;8.634;2022-11-18T02:41:28;1.52;;;0.20;;
21480;SDS011;10902;48.158;8.634;2022-11-18T02:44:01;2.00;;;0.80;;
21480;SDS011;10902;48.158;8.634;2022-11-18T02:46:49;1.70;;;0.20;;
21480;SDS011;10902;48.158;8.634;2022-11-18T02:49:19;1.10;;;0.30;;
21480;SDS011;10902;48.158;8.634;2022-11-18T02:51:49;1.20;;;0.30;;
21480;SDS011;10902;48.158;8.634;2022-11-18T02:54:16;1.02;;;0.38;;
21480;SDS011;10902;48.158;8.634;2022-11-18T02:56:43;1.27;;;0.43;;
21480;SDS011;10902;48.158;8.634;2022-11-18T02:59:10;1.70;;;0.30;;
21480;SDS011;10902;48.158;8.634;2022-11-18T03:01:41;1.20;;;0.35;;
21480;SDS011;10902;48.158;8.634;2022-11-18T03:04:07;0.80;;;0.40;;
21480;SDS011;10902;48.158;8.634;2022-11-18T03:06:33;1.20;;;0.30;;
21480;SDS011;10902;48.158;8.634;2022-11-18T03:09:09;1.65;;;0.40;;
21480;SDS011;10902;48.158;8.634;2022-11-18T03:14:31;1.17;;;0.30;;
21480;SDS011;10902;48.158;8.634;2022-11-18T03:17:13;1.42;;;0.30;;
21480;SDS011;10902;48.158;8.634;2022-11-18T03:22:51;1.42;;;0.20;;
21480;SDS011;10902;48.158;8.634;2022-11-18T03:27:55;3.40;;;0.30;;
21480;SDS011;10902;48.158;8.634;2022-11-18T03:30:31;1.40;;;0.47;;
21480;SDS011;10902;48.158;8.634;2022-11-18T03:33:00;3.47;;;1.10;;
21480;SDS011;10902;48.158;8.634;2022-11-18T03:35:30;2.92;;;0.38;;
21480;SDS011;10902;48.158;8.634;2022-11-18T03:38:00;0.82;;;0.25;;
21480;SDS011;10902;48.158;8.634;2022-11-18T03:40:30;1.25;;;0.28;;
21480;SDS011;10902;48.158;8.634;2022-11-18T03:43:01;1.25;;;0.25;;
21480;SDS011;10902;48.158;8.634;2022-11-18T03:45:41;1.30;;;0.20;;
21480;SDS011;10902;48.158;8.634;2022-11-18T03:48:17;0.65;;;0.20;;
21480;SDS011;10902;48.158;8.634;2022-11-18T03:50:56;1.50;;;0.20;;
21480;SDS011;10902;48.158;8.634;2022-11-18T03:53:31;0.88;;;0.30;;
21480;SDS011;10902;48.158;8.634;2022-11-18T03:56:03;0.20;;;0.10;;
21480;SDS011;10902;48.158;8.634;2022-11-18T03:58:35;0.73;;;0.20;;
21480;SDS011;10902;48.158;8.634;2022-11-18T04:01:13;2.35;;;0.30;;
21480;SDS011;10902;48.158;8.634;2022-11-18T04:03:43;1.67;;;0.40;;
21480;SDS011;10902;48.158;8.634;2022-11-18T04:06:13;0.82;;;0.20;;
21480;SDS011;10902;48.158;8.634;2022-11-18T04:08:46;0.50;;;0.20;;
21480;SDS011;10902;48.158;8.634;2022-11-18T04:11:21;1.15;;;0.20;;
21480;SDS011;10902;48.158;8.634;2022-11-18T04:14:12;1.17;;;0.10;;
21480;SDS011;10902;48.158;8.634;2022-11-18T04:16:40;0.10;;;0.10;;
21480;SDS011;10902;48.158;8.634;2022-11-18T04:19:06;0.22;;;0.10;;
21480;SDS011;10902;48.158;8.634;2022-11-18T04:21:32;0.85;;;0.10;;
21480;SDS011;10902;48.158;8.634;2022-11-18T04:23:58;0.10;;;0.10;;
21480;SDS011;10902;48.158;8.634;2022-11-18T04:26:23;2.03;;;0.30;;
21480;SDS011;10902;48.158;8.634;2022-11-18T04:28:49;0.38;;;0.20;;
21480;SDS011;10902;48.158;8.634;2022-11-18T04:31:14;0.35;;;0.10;;
21480;SDS011;10902;48.158;8.634;2022-11-18T04:33:40;0.55;;;0.10;;
21480;SDS011;10902;48.158;8.634;2022-11-18T04:36:06;0.80;;;0.10;;
21480;SDS011;10902;48.158;8.634;2022-11-18T04:38:31;0.10;;;0.10;;
21480;SDS011;10902;48.158;8.634;2022-11-18T04:40:57;0.68;;;0.20;;
21480;SDS011;10902;48.158;8.634;2022-11-18T04:43:22;0.30;;;0.10;;
21480;SDS011;10902;48.158;8.634;2022-11-18T04:45:48;0.22;;;0.10;;
21480;SDS011;10902;48.158;8.634;2022-11-18T04:48:13;0.47;;;0.10;;
21480;SDS011;10902;48.158;8.634;2022-11-18T04:50:40;0.22;;;0.10;;
21480;SDS011;10902;48.158;8.634;2022-11-18T04:53:05;0.10;;;0.10;;
21480;SDS011;10902;48.158;8.634;2022-11-18T04:55:33;0.10;;;0.10;;
21480;SDS011;10902;48.158;8.634;2022-11-18T04:58:00;0.40;;;0.20;;
21480;SDS011;10902;48.158;8.634;2022-11-18T05:00:25;0.55;;;0.20;;
21480;SDS011;10902;48.158;8.634;2022-11-18T05:02:51;0.30;;;0.10;;
21480;SDS011;10902;48.158;8.634;2022-11-18T05:05:16;0.22;;;0.10;;
21480;SDS011;10902;48.158;8.634;2022-11-18T05:07:42;1.67;;;0.10;;
21480;SDS011;10902;48.158;8.634;2022-11-18T05:10:08;1.55;;;0.20;;
21480;SDS011;10902;48.158;8.634;2022-11-18T05:12:33;0.50;;;0.17;;
21480;SDS011;10902;48.158;8.634;2022-11-18T05:15:14;1.65;;;0.30;;
21480;SDS011;10902;48.158;8.634;2022-11-18T05:17:41;3.83;;;1.15;;
21480;SDS011;10902;48.158;8.634;2022-11-18T05:20:07;2.20;;;0.40;;
21480;SDS011;10902;48.158;8.634;2022-11-18T05:22:33;2.38;;;0.90;;
21480;SDS011;10902;48.158;8.634;2022-11-18T05:24:58;1.98;;;0.57;;
21480;SDS011;10902;48.158;8.634;2022-11-18T05:27:24;3.10;;;1.00;;
21480;SDS011;10902;48.158;8.634;2022-11-18T05:29:50;2.83;;;0.60;;
21480;SDS011;10902;48.158;8.634;2022-11-18T05:32:16;2.67;;;0.65;;
21480;SDS011;10902;48.158;8.634;2022-11-18T05:34:42;4.18;;;1.60;;
21480;SDS011;10902;48.158;8.634;2022-11-18T05:37:07;5.32;;;2.17;;
21480;SDS011;10902;48.158;8.634;2022-11-18T05:39:33;7.38;;;2.88;;
21480;SDS011;10902;48.158;8.634;2022-11-18T05:41:59;4.63;;;1.50;;
21480;SDS011;10902;48.158;8.634;2022-11-18T05:44:44;5.15;;;2.58;;
21480;SDS011;10902;48.158;8.634;2022-11-18T05:47:10;3.45;;;1.35;;
21480;SDS011;10902;48.158;8.634;2022-11-18T05:49:35;2.72;;;0.95;;
21480;SDS011;10902;48.158;8.634;2022-11-18T05:52:01;2.97;;;0.70;;
21480;SDS011;10902;48.158;8.634;2022-11-18T05:54:27;2.60;;;0.52;;
21480;SDS011;10902;48.158;8.634;2022-11-18T05:56:53;2.22;;;0.80;;
21480;SDS011;10902;48.158;8.634;2022-11-18T05:59:19;4.95;;;1.63;;
21480;SDS011;10902;48.158;8.634;2022-11-18T06:01:45;4.43;;;2.22;;
21480;SDS011;10902;48.158;8.634;2022-11-18T06:04:26;3.35;;;1.27;;
21480;SDS011;10902;48.158;8.634;2022-11-18T06:06:57;4.72;;;1.50;;
21480;SDS011;10902;48.158;8.634;2022-11-18T06:09:29;5.43;;;2.50;;
21480;SDS011;10902;48.158;8.634;2022-11-18T06:11:59;4.38;;;2.38;;
21480;SDS011;10902;48.158;8.634;2022-11-18T06:16:55;4.63;;;2.22;;
21480;SDS011;10902;48.158;8.634;2022-11-18T06:19:24;3.85;;;1.75;;
21480;SDS011;10902;48.158;8.634;2022-11-18T06:21:50;3.35;;;1.10;;
21480;SDS011;10902;48.158;8.634;2022-11-18T06:24:16;3.00;;;1.42;;
21480;SDS011;10902;48.158;8.634;2022-11-18T06:26:42;5.95;;;2.40;;
21480;SDS011;10902;48.158;8.634;2022-11-18T06:29:09;4.53;;;1.48;;
21480;SDS011;10902;48.158;8.634;2022-11-18T06:31:37;2.90;;;1.23;;
21480;SDS011;10902;48.158;8.634;2022-11-18T06:34:02;6.75;;;3.38;;
21480;SDS011;10902;48.158;8.634;2022-11-18T06:36:28;5.38;;;2.00;;
21480;SDS011;10902;48.158;8.634;2022-11-18T06:38:53;4.57;;;2.38;;
21480;SDS011;10902;48.158;8.634;2022-11-18T06:41:19;4.60;;;2.55;;
21480;SDS011;10902;48.158;8.634;2022-11-18T06:43:45;4.80;;;2.50;;
21480;SDS011;10902;48.158;8.634;2022-11-18T06:46:12;4.47;;;2.78;;
21480;SDS011;10902;48.158;8.634;2022-11-18T06:49:00;5.03;;;2.47;;
21480;SDS011;10902;48.158;8.634;2022-11-18T06:51:26;4.95;;;2.22;;
21480;SDS011;10902;48.158;8.634;2022-11-18T06:53:53;3.92;;;2.08;;
21480;SDS011;10902;48.158;8.634;2022-11-18T06:56:19;3.97;;;1.90;;
21480;SDS011;10902;48.158;8.634;2022-11-18T06:58:45;4.80;;;2.67;;
21480;SDS011;10902;48.158;8.634;2022-11-18T07:03:42;6.20;;;2.45;;
21480;SDS011;10902;48.158;8.634;2022-11-18T07:06:10;5.63;;;3.33;;
21480;SDS011;10902;48.158;8.634;2022-11-18T07:08:37;4.72;;;2.90;;
21480;SDS011;10902;48.158;8.634;2022-11-18T07:11:04;5.72;;;3.60;;
21480;SDS011;10902;48.158;8.634;2022-11-18T07:13:32;5.57;;;2.83;;
21480;SDS011;10902;48.158;8.634;2022-11-18T07:16:11;5.35;;;3.20;;
21480;SDS011;10902;48.158;8.634;2022-11-18T07:18:41;5.18;;;2.42;;
21480;SDS011;10902;48.158;8.634;2022-11-18T07:21:12;3.53;;;1.75;;
21480;SDS011;10902;48.158;8.634;2022-11-18T07:23:39;2.95;;;1.25;;
21480;SDS011;10902;48.158;8.634;2022-11-18T07:26:05;1.58;;;0.50;;
21480;SDS011;10902;48.158;8.634;2022-11-18T07:28:31;4.75;;;1.45;;
21480;SDS011;10902;48.158;8.634;2022-11-18T07:31:03;3.35;;;0.80;;
21480;SDS011;10902;48.158;8.634;2022-11-18T07:33:31;2.35;;;0.85;;
21480;SDS011;10902;48.158;8.634;2022-11-18T07:36:02;2.05;;;0.75;;
21480;SDS011;10902;48.158;8.634;2022-11-18T07:38:31;2.00;;;0.52;;
21480;SDS011;10902;48.158;8.634;2022-11-18T07:41:04;3.38;;;1.08;;
21480;SDS011;10902;48.158;8.634;2022-11-18T07:43:34;3.92;;;0.63;;
21480;SDS011;10902;48.158;8.634;2022-11-18T07:46:10;2.00;;;0.60;;
21480;SDS011;10902;48.158;8.634;2022-11-18T07:48:46;2.60;;;0.88;;
21480;SDS011;10902;48.158;8.634;2022-11-18T07:51:17;2.65;;;0.90;;
21480;SDS011;10902;48.158;8.634;2022-11-18T07:53:45;2.33;;;1.10;;
21480;SDS011;10902;48.158;8.634;2022-11-18T07:56:11;4.07;;;1.60;;
21480;SDS011;10902;48.158;8.634;2022-11-18T07:58:37;3.63;;;1.40;;
21480;SDS011;10902;48.158;8.634;2022-11-18T08:01:05;3.38;;;1.30;;
21480;SDS011;10902;48.158;8.634;2022-11-18T08:03:32;4.30;;;1.80;;
21480;SDS011;10902;48.158;8.634;2022-11-18T08:05:58;4.10;;;2.10;;
21480;SDS011;10902;48.158;8.634;2022-11-18T08:08:25;4.55;;;2.22;;
21480;SDS011;10902;48.158;8.634;2022-11-18T08:10:53;4.32;;;2.03;;
21480;SDS011;10902;48.158;8.634;2022-11-18T08:13:21;4.93;;;2.20;;
21480;SDS011;10902;48.158;8.634;2022-11-18T08:15:46;2.55;;;0.90;;
21480;SDS011;10902;48.158;8.634;2022-11-18T08:18:12;3.17;;;1.33;;
21480;SDS011;10902;48.158;8.634;2022-11-18T08:20:38;3.30;;;0.80;;
21480;SDS011;10902;48.158;8.634;2022-11-18T08:23:03;3.60;;;0.70;;
21480;SDS011;10902;48.158;8.634;2022-11-18T08:25:29;2.47;;;0.80;;
21480;SDS011;10902;48.158;8.634;2022-11-18T08:27:54;1.70;;;0.65;;
21480;SDS011;10902;48.158;8.634;2022-11-18T08:30:20;2.13;;;0.73;;
21480;SDS011;10902;48.158;8.634;2022-11-18T08:32:46;2.70;;;0.55;;
21480;SDS011;10902;48.158;8.634;2022-11-18T08:35:11;2.38;;;0.77;;
21480;SDS011;10902;48.158;8.634;2022-11-18T08:37:37;2.10;;;0.70;;
21480;SDS011;10902;48.158;8.634;2022-11-18T08:40:03;2.55;;;0.70;;
21480;SDS011;10902;48.158;8.634;2022-11-18T08:42:29;4.18;;;1.20;;
21480;SDS011;10902;48.158;8.634;2022-11-18T08:44:54;2.88;;;1.15;;
21480;SDS011;10902;48.158;8.634;2022-11-18T08:47:20;2.97;;;0.98;;
21480;SDS011;10902;48.158;8.634;2022-11-18T08:49:45;1.85;;;0.60;;
21480;SDS011;10902;48.158;8.634;2022-11-18T08:52:11;1.75;;;0.60;;
21480;SDS011;10902;48.158;8.634;2022-11-18T08:54:37;2.85;;;0.80;;
21480;SDS011;10902;48.158;8.634;2022-11-18T08:57:03;3.13;;;0.80;;
21480;SDS011;10902;48.158;8.634;2022-11-18T08:59:31;2.15;;;0.50;;
21480;SDS011;10902;48.158;8.634;2022-11-18T09:01:59;1.73;;;0.50;;
21480;SDS011;10902;48.158;8.634;2022-11-18T09:04:28;2.65;;;0.63;;
21480;SDS011;10902;48.158;8.634;2022-11-18T09:06:53;1.50;;;0.52;;
21480;SDS011;10902;48.158;8.634;2022-11-18T09:09:19;1.25;;;0.30;;
21480;SDS011;10902;48.158;8.634;2022-11-18T09:11:45;2.55;;;0.45;;
21480;SDS011;10902;48.158;8.634;2022-11-18T09:14:10;1.98;;;0.30;;
21480;SDS011;10902;48.158;8.634;2022-11-18T09:16:36;0.75;;;0.30;;
21480;SDS011;10902;48.158;8.634;2022-11-18T09:19:02;0.68;;;0.30;;
21480;SDS011;10902;48.158;8.634;2022-11-18T09:21:28;1.08;;;0.30;;
21480;SDS011;10902;48.158;8.634;2022-11-18T09:23:53;0.65;;;0.20;;
21480;SDS011;10902;48.158;8.634;2022-11-18T09:26:20;1.20;;;0.40;;
21480;SDS011;10902;48.158;8.634;2022-11-18T09:28:47;1.88;;;0.20;;
21480;SDS011;10902;48.158;8.634;2022-11-18T09:31:15;1.65;;;0.28;;
21480;SDS011;10902;48.158;8.634;2022-11-18T09:33:42;0.80;;;0.30;;
21480;SDS011;10902;48.158;8.634;2022-11-18T09:36:18;1.17;;;0.40;;
21480;SDS011;10902;48.158;8.634;2022-11-18T09:38:45;1.25;;;0.30;;
21480;SDS011;10902;48.158;8.634;2022-11-18T09:44:07;1.05;;;0.30;;
21480;SDS011;10902;48.158;8.634;2022-11-18T09:50:00;1.40;;;0.30;;
21480;SDS011;10902;48.158;8.634;2022-11-18T09:52:38;1.30;;;0.30;;
21480;SDS011;10902;48.158;8.634;2022-11-18T09:55:25;0.85;;;0.30;;
21480;SDS011;10902;48.158;8.634;2022-11-18T09:57:55;0.80;;;0.28;;
21480;SDS011;10902;48.158;8.634;2022-11-18T10:00:24;0.68;;;0.30;;
21480;SDS011;10902;48.158;8.634;2022-11-18T10:02:59;2.28;;;0.40;;
21480;SDS011;10902;48.158;8.634;2022-11-18T10:05:33;1.55;;;0.30;;
21480;SDS011;10902;48.158;8.634;2022-11-18T10:13:26;0.70;;;0.30;;
21480;SDS011;10902;48.158;8.634;2022-11-18T10:24:24;1.25;;;0.35;;
21480;SDS011;10902;48.158;8.634;2022-11-18T10:26:55;1.33;;;0.30;;
21480;SDS011;10902;48.158;8.634;2022-11-18T10:29:22;1.80;;;0.63;;
21480;SDS011;10902;48.158;8.634;2022-11-18T10:32:04;1.27;;;0.40;;
21480;SDS011;10902;48.158;8.634;2022-11-18T10:34:47;1.25;;;0.30;;
21480;SDS011;10902;48.158;8.634;2022-11-18T10:39:59;1.42;;;0.40;;
21480;SDS011;10902;48.158;8.634;2022-11-18T10:42:34;0.70;;;0.30;;
21480;SDS011;10902;48.158;8.634;2022-11-18T10:47:59;0.30;;;0.10;;
21480;SDS011;10902;48.158;8.634;2022-11-18T10:50:41;1.00;;;0.20;;
21480;SDS011;10902;48.158;8.634;2022-11-18T10:55:59;0.93;;;0.30;;
21480;SDS011;10902;48.158;8.634;2022-11-18T10:58:43;1.52;;;0.40;;
21480;SDS011;10902;48.158;8.634;2022-11-18T11:03:59;1.77;;;0.45;;
21480;SDS011;10902;48.158;8.634;2022-11-18T11:06:30;1.70;;;0.50;;
21480;SDS011;10902;48.158;8.634;2022-11-18T11:11:34;2.20;;;0.40;;
21480;SDS011;10902;48.158;8.634;2022-11-18T11:14:05;1.88;;;0.30;;
21480;SDS011;10902;48.158;8.634;2022-11-18T11:16:44;1.30;;;0.35;;
21480;SDS011;10902;48.158;8.634;2022-11-18T11:19:16;1.27;;;0.30;;
21480;SDS011;10902;48.158;8.634;2022-11-18T11:21:45;0.98;;;0.35;;
21480;SDS011;10902;48.158;8.634;2022-11-18T11:24:11;1.33;;;0.35;;
21480;SDS011;10902;48.158;8.634;2022-11-18T11:40:24;0.70;;;0.20;;
21480;SDS011;10902;48.158;8.634;2022-11-18T11:43:19;2.38;;;0.50;;
21480;SDS011;10902;48.158;8.634;2022-11-18T11:49:59;1.92;;;0.50;;
21480;SDS011;10902;48.158;8.634;2022-11-18T11:55:47;1.40;;;0.40;;
21480;SDS011;10902;48.158;8.634;2022-11-18T11:59:04;2.53;;;0.50;;
21480;SDS011;10902;48.158;8.634;2022-11-18T12:06:58;2.70;;;0.80;;
21480;SDS011;10902;48.158;8.634;2022-11-18T12:12:06;3.40;;;0.57;;
21480;SDS011;10902;48.158;8.634;2022-11-18T12:32:55;2.35;;;0.65;;
21480;SDS011;10902;48.158;8.634;2022-11-18T12:42:52;2.38;;;0.60;;
21480;SDS011;10902;48.158;8.634;2022-11-18T12:45:58;3.40;;;0.60;;
21480;SDS011;10902;48.158;8.634;2022-11-18T12:51:55;1.50;;;0.40;;
21480;SDS011;10902;48.158;8.634;2022-11-18T12:54:26;3.67;;;0.50;;
21480;SDS011;10902;48.158;8.634;2022-11-18T12:59:36;3.33;;;0.55;;
21480;SDS011;10902;48.158;8.634;2022-11-18T13:02:24;2.38;;;0.70;;
21480;SDS011;10902;48.158;8.634;2022-11-18T13:05:07;3.13;;;0.60;;
21480;SDS011;10902;48.158;8.634;2022-11-18T13:07:44;2.15;;;0.60;;
21480;SDS011;10902;48.158;8.634;2022-11-18T13:10:34;2.72;;;0.70;;
21480;SDS011;10902;48.158;8.634;2022-11-18T13:13:04;1.77;;;0.60;;
21480;SDS011;10902;48.158;8.634;2022-11-18T13:15:40;1.98;;;0.60;;
21480;SDS011;10902;48.158;8.634;2022-11-18T13:18:25;2.78;;;0.68;;
21480;SDS011;10902;48.158;8.634;2022-11-18T13:20:55;2.70;;;0.50;;
21480;SDS011;10902;48.158;8.634;2022-11-18T13:23:29;3.08;;;0.68;;
21480;SDS011;10902;48.158;8.634;2022-11-18T13:29:14;2.28;;;0.55;;
21480;SDS011;10902;48.158;8.634;2022-11-18T13:34:25;1.80;;;0.52;;
21480;SDS011;10902;48.158;8.634;2022-11-18T13:36:53;3.10;;;1.13;;
21480;SDS011;10902;48.158;8.634;2022-11-18T13:39:25;1.95;;;0.50;;
21480;SDS011;10902;48.158;8.634;2022-11-18T13:41:59;2.40;;;0.68;;
21480;SDS011;10902;48.158;8.634;2022-11-18T13:44:28;1.55;;;0.50;;
21480;SDS011;10902;48.158;8.634;2022-11-18T13:47:18;2.05;;;0.50;;
21480;SDS011;10902;48.158;8.634;2022-11-18T13:55:44;0.77;;;0.20;;
21480;SDS011;10902;48.158;8.634;2022-11-18T14:01:18;0.90;;;0.30;;
21480;SDS011;10902;48.158;8.634;2022-11-18T14:03:51;1.38;;;0.40;;
21480;SDS011;10902;48.158;8.634;2022-11-18T14:06:23;1.80;;;0.60;;
21480;SDS011;10902;48.158;8.634;2022-11-18T14:08:50;1.92;;;0.40;;
21480;SDS011;10902;48.158;8.634;2022-11-18T14:11:40;1.27;;;0.40;;
21480;SDS011;10902;48.158;8.634;2022-11-18T14:14:08;1.27;;;0.30;;
21480;SDS011;10902;48.158;8.634;2022-11-18T14:16:37;0.85;;;0.30;;
21480;SDS011;10902;48.158;8.634;2022-11-18T14:19:10;1.80;;;0.50;;
21480;SDS011;10902;48.158;8.634;2022-11-18T14:21:52;4.28;;;1.02;;
21480;SDS011;10902;48.158;8.634;2022-11-18T14:24:24;2.58;;;0.80;;
21480;SDS011;10902;48.158;8.634;2022-11-18T14:26:51;2.53;;;0.70;;
21480;SDS011;10902;48.158;8.634;2022-11-18T14:29:17;2.22;;;0.80;;
21480;SDS011;10902;48.158;8.634;2022-11-18T14:32:03;1.90;;;0.73;;
21480;SDS011;10902;48.158;8.634;2022-11-18T14:34:34;2.38;;;0.77;;
21480;SDS011;10902;48.158;8.634;2022-11-18T14:37:00;2.47;;;0.70;;
21480;SDS011;10902;48.158;8.634;2022-11-18T14:39:33;2.53;;;0.70;;
21480;SDS011;10902;48.158;8.634;2022-11-18T14:42:00;1.38;;;0.40;;
21480;SDS011;10902;48.158;8.634;2022-11-18T14:44:26;2.17;;;0.50;;
21480;SDS011;10902;48.158;8.634;2022-11-18T14:47:02;0.85;;;0.32;;
21480;SDS011;10902;48.158;8.634;2022-11-18T14:49:56;1.77;;;0.47;;
21480;SDS011;10902;48.158;8.634;2022-11-18T14:52:21;3.75;;;0.47;;
21480;SDS011;10902;48.158;8.634;2022-11-18T14:54:47;1.88;;;0.40;;
21480;SDS011;10902;48.158;8.634;2022-11-18T14:57:13;4.05;;;1.05;;
21480;SDS011;10902;48.158;8.634;2022-11-18T14:59:40;2.25;;;0.60;;
21480;SDS011;10902;48.158;8.634;2022-11-18T15:02:13;4.68;;;0.90;;
21480;SDS011;10902;48.158;8.634;2022-11-18T15:04:41;2.28;;;0.60;;
21480;SDS011;10902;48.158;8.634;2022-11-18T15:07:08;2.85;;;0.60;;
21480;SDS011;10902;48.158;8.634;2022-11-18T15:09:37;3.47;;;0.70;;
21480;SDS011;10902;48.158;8.634;2022-11-18T15:12:03;3.83;;;1.10;;
21480;SDS011;10902;48.158;8.634;2022-11-18T15:14:29;7.60;;;1.75;;
21480;SDS011;10902;48.158;8.634;2022-11-18T15:16:55;3.80;;;1.27;;
21480;SDS011;10902;48.158;8.634;2022-11-18T15:19:21;4.68;;;1.25;;
21480;SDS011;10902;48.158;8.634;2022-11-18T15:21:46;3.17;;;0.90;;
21480;SDS011;10902;48.158;8.634;2022-11-18T15:24:12;2.42;;;0.90;;
21480;SDS011;10902;48.158;8.634;2022-11-18T15:26:39;3.28;;;0.70;;
21480;SDS011;10902;48.158;8.634;2022-11-18T15:29:07;3.35;;;0.80;;
21480;SDS011;10902;48.158;8.634;2022-11-18T15:31:40;1.92;;;0.65;;
21480;SDS011;10902;48.158;8.634;2022-11-18T15:34:06;3.60;;;1.10;;
21480;SDS011;10902;48.158;8.634;2022-11-18T15:36:31;3.67;;;0.90;;
21480;SDS011;10902;48.158;8.634;2022-11-18T15:38:57;4.25;;;1.35;;
21480;SDS011;10902;48.158;8.634;2022-11-18T15:41:27;5.40;;;2.05;;
21480;SDS011;10902;48.158;8.634;2022-11-18T15:43:54;4.20;;;1.42;;
21480;SDS011;10902;48.158;8.634;2022-11-18T15:46:22;2.97;;;1.05;;
21480;SDS011;10902;48.158;8.634;2022-11-18T15:48:52;3.55;;;1.30;;
21480;SDS011;10902;48.158;8.634;2022-11-18T15:51:18;4.18;;;1.23;;
21480;SDS011;10902;48.158;8.634;2022-11-18T15:53:44;4.57;;;2.40;;
21480;SDS011;10902;48.158;8.634;2022-11-18T15:56:14;4.95;;;1.77;;
21480;SDS011;10902;48.158;8.634;2022-11-18T15:58:43;4.13;;;1.17;;
21480;SDS011;10902;48.158;8.634;2022-11-18T16:01:09;3.22;;;1.00;;
21480;SDS011;10902;48.158;8.634;2022-11-18T16:03:35;3.58;;;1.27;;
21480;SDS011;10902;48.158;8.634;2022-11-18T16:06:01;3.38;;;1.13;;
21480;SDS011;10902;48.158;8.634;2022-11-18T16:08:28;4.35;;;1.50;;
21480;SDS011;10902;48.158;8.634;2022-11-18T16:10:54;3.50;;;1.30;;
21480;SDS011;10902;48.158;8.634;2022-11-18T16:13:39;5.13;;;2.20;;
21480;SDS011;10902;48.158;8.634;2022-11-18T16:16:05;4.00;;;1.60;;
21480;SDS011;10902;48.158;8.634;2022-11-18T16:18:31;3.28;;;1.10;;
21480;SDS011;10902;48.158;8.634;2022-11-18T16:20:58;5.32;;;1.30;;
21480;SDS011;10902;48.158;8.634;2022-11-18T16:23:24;3.85;;;1.55;;
21480;SDS011;10902;48.158;8.634;2022-11-18T16:25:52;4.95;;;2.00;;
21480;SDS011;10902;48.158;8.634;2022-11-18T16:28:17;5.95;;;1.58;;
21480;SDS011;10902;48.158;8.634;2022-11-18T16:30:47;3.42;;;0.95;;
21480;SDS011;10902;48.158;8.634;2022-11-18T16:33:31;4.43;;;1.00;;
21480;SDS011;10902;48.158;8.634;2022-11-18T16:35:56;2.72;;;0.90;;
21480;SDS011;10902;48.158;8.634;2022-11-18T16:38:22;3.60;;;1.10;;
21480;SDS011;10902;48.158;8.634;2022-11-18T16:40:57;2.05;;;0.70;;
21480;SDS011;10902;48.158;8.634;2022-11-18T16:43:23;1.63;;;0.30;;
21480;SDS011;10902;48.158;8.634;2022-11-18T16:45:52;1.25;;;0.40;;
21480;SDS011;10902;48.158;8.634;2022-11-18T16:48:19;0.98;;;0.30;;
21480;SDS011;10902;48.158;8.634;2022-11-18T16:50:50;2.35;;;0.60;;
21480;SDS011;10902;48.158;8.634;2022-11-18T16:53:26;1.58;;;0.40;;
21480;SDS011;10902;48.158;8.634;2022-11-18T16:55:51;1.80;;;0.35;;
21480;SDS011;10902;48.158;8.634;2022-11-18T16:58:17;1.83;;;0.70;;
21480;SDS011;10902;48.158;8.634;2022-11-18T17:00:42;1.40;;;0.40;;
21480;SDS011;10902;48.158;8.634;2022-11-18T17:03:08;2.78;;;1.05;;
21480;SDS011;10902;48.158;8.634;2022-11-18T17:05:34;3.17;;;1.40;;
21480;SDS011;10902;48.158;8.634;2022-11-18T17:07:59;4.10;;;2.30;;
21480;SDS011;10902;48.158;8.634;2022-11-18T17:10:25;3.75;;;2.05;;
21480;SDS011;10902;48.158;8.634;2022-11-18T17:12:50;5.18;;;2.70;;
21480;SDS011;10902;48.158;8.634;2022-11-18T17:15:16;3.63;;;2.10;;
21480;SDS011;10902;48.158;8.634;2022-11-18T17:17:41;3.65;;;1.40;;
21480;SDS011;10902;48.158;8.634;2022-11-18T17:20:07;5.53;;;2.20;;
21480;SDS011;10902;48.158;8.634;2022-11-18T17:22:33;4.18;;;2.53;;